TJNR/NRR METAR and TAF weather

Enter ICAO airport designator
Station Type Date Time Source
TJNR METAR 2018/12/11 19:53 UTC NOAA

TJNR 111953Z AUTO 11009KT 10SM CLR 27/21 A3005 RMK AO2 SLP175 T02670211


Station Type Date Time Source
TJNR Decoded METAR 2018/12/11 19:53 UTC NOAA

ROOSEVELT ROADS PUERTO RICO, PR, United States (TJNR) 18-15N 65-38W 10M
Dec 11, 2018 - 02:53 PM EST / 2018.12.11 1953 UTC
Wind: from the ESE (110 degrees) at 10 MPH (9 KT):0
Visibility: 10 mile(s):0
Sky conditions: clear
Temperature: 80.1 F (26.7 C)
Dew Point: 70.0 F (21.1 C)
Relative Humidity: 71%
Pressure (altimeter): 30.05 in. Hg (1017 hPa)
ob: TJNR 111953Z AUTO 11009KT 10SM CLR 27/21 A3005 RMK AO2 SLP175 T02670211
cycle: 20

Station Type Date Time Source
TJNR TAF UTC NOAA

Error!


Example: see airport list